createdAt,value
2018-12-24T00:00:37.219Z,12.20
2018-12-24T00:03:21.882Z,12.50
2018-12-24T00:06:04.467Z,12.40
2018-12-24T00:08:49.099Z,12.30
2018-12-24T00:11:31.883Z,12.20
2018-12-24T00:14:19.352Z,12.20
2018-12-24T00:17:04.931Z,12.30
2018-12-24T00:19:51.125Z,12.20
2018-12-24T00:22:35.175Z,12.30
2018-12-24T00:25:19.491Z,12.20
2018-12-24T00:28:03.527Z,12.20
2018-12-24T00:30:47.944Z,12.10
2018-12-24T00:33:33.519Z,12.10
2018-12-24T00:36:18.435Z,12.10
2018-12-24T00:39:03.447Z,12.10
2018-12-24T00:41:46.538Z,12.00
2018-12-24T00:44:30.930Z,12.10
2018-12-24T00:47:15.552Z,12.10
2018-12-24T00:49:59.955Z,12.10
2018-12-24T00:52:45.232Z,12.10
2018-12-24T00:55:30.505Z,12.20
2018-12-24T00:58:15.495Z,12.20
2018-12-24T01:01:01.923Z,12.10
2018-12-24T01:03:47.513Z,12.10
2018-12-24T01:06:34.237Z,12.30
2018-12-24T01:09:17.496Z,12.30
2018-12-24T01:12:03.996Z,12.10
2018-12-24T01:14:56.584Z,12.10
2018-12-24T01:17:43.007Z,12.10
2018-12-24T01:20:31.185Z,12.30
2018-12-24T01:23:14.874Z,12.30
2018-12-24T01:25:57.690Z,12.30
2018-12-24T01:28:42.640Z,12.30
2018-12-24T01:31:29.641Z,12.30
2018-12-24T01:36:35.361Z,12.30
2018-12-24T01:39:22.614Z,12.40
2018-12-24T01:42:09.433Z,12.40
2018-12-24T01:44:54.048Z,12.40
2018-12-24T01:47:39.059Z,12.40
2018-12-24T01:50:23.652Z,12.30
2018-12-24T01:53:05.310Z,12.30
2018-12-24T01:55:51.155Z,12.30
2018-12-24T01:58:43.663Z,12.30
2018-12-24T02:01:38.620Z,12.40
2018-12-24T02:04:31.564Z,12.40
2018-12-24T02:07:15.904Z,12.50
2018-12-24T02:10:00.006Z,12.50
2018-12-24T02:12:44.672Z,12.50
2018-12-24T02:15:28.971Z,12.50
2018-12-24T02:18:20.636Z,12.40
2018-12-24T02:21:07.555Z,12.40
2018-12-24T02:23:54.326Z,12.50
2018-12-24T02:26:37.688Z,12.50
2018-12-24T02:29:21.644Z,12.40
2018-12-24T02:32:11.124Z,12.50
2018-12-24T02:34:55.479Z,12.50
2018-12-24T02:37:39.524Z,12.60
2018-12-24T02:40:26.646Z,12.60
2018-12-24T02:43:22.127Z,12.60
2018-12-24T02:46:18.948Z,12.60
2018-12-24T02:49:16.259Z,12.70
2018-12-24T02:52:12.613Z,12.70
2018-12-24T02:55:18.554Z,12.60
2018-12-24T02:58:12.719Z,12.70
2018-12-24T03:00:59.688Z,12.70
2018-12-24T03:03:46.677Z,12.80
2018-12-24T03:06:39.175Z,12.90
2018-12-24T03:09:24.495Z,12.80
2018-12-24T03:12:10.399Z,12.70
2018-12-24T03:14:57.156Z,12.70
2018-12-24T03:17:43.395Z,12.70
2018-12-24T03:20:29.285Z,12.80
2018-12-24T03:23:21.319Z,12.60
2018-12-24T03:26:06.549Z,12.60
2018-12-24T03:28:52.489Z,12.60
2018-12-24T03:31:37.148Z,12.50
2018-12-24T03:34:24.530Z,12.50
2018-12-24T03:37:07.055Z,12.40
2018-12-24T03:39:52.624Z,12.30
2018-12-24T03:42:42.203Z,12.20
2018-12-24T03:45:26.560Z,12.20
2018-12-24T03:48:12.182Z,12.20
2018-12-24T03:51:04.763Z,12.10
2018-12-24T03:53:49.449Z,12.20
2018-12-24T03:56:34.462Z,12.10
2018-12-24T03:59:19.076Z,12.10
2018-12-24T04:02:08.079Z,12.10
2018-12-24T04:04:51.753Z,12.20
2018-12-24T04:07:44.735Z,12.20
2018-12-24T04:10:34.735Z,12.20
2018-12-24T04:13:23.780Z,12.20
2018-12-24T04:16:06.402Z,12.40
2018-12-24T04:18:55.364Z,12.40
2018-12-24T04:21:43.755Z,12.30
2018-12-24T04:24:36.710Z,12.20
2018-12-24T04:27:20.704Z,12.30
2018-12-24T04:30:04.145Z,12.40
2018-12-24T04:32:51.568Z,12.30
2018-12-24T04:35:34.127Z,12.30
2018-12-24T04:38:21.551Z,12.30
2018-12-24T04:41:11.761Z,12.40
2018-12-24T04:43:59.015Z,12.40
2018-12-24T04:46:44.848Z,12.30
2018-12-24T04:49:31.259Z,12.40
2018-12-24T04:52:18.818Z,12.40
2018-12-24T04:55:14.719Z,12.40
2018-12-24T04:58:01.221Z,12.40
2018-12-24T05:00:46.137Z,12.50
2018-12-24T05:03:32.006Z,12.40
2018-12-24T05:06:21.829Z,12.30
2018-12-24T05:09:16.712Z,12.20
2018-12-24T05:12:00.758Z,12.00
2018-12-24T05:14:47.263Z,11.80
2018-12-24T05:17:35.787Z,11.70
2018-12-24T05:20:27.798Z,11.70
2018-12-24T05:23:12.663Z,11.60
2018-12-24T05:25:57.845Z,11.60
2018-12-24T05:28:46.830Z,11.60
2018-12-24T05:31:34.640Z,11.50
2018-12-24T05:34:21.449Z,11.50
2018-12-24T05:37:08.560Z,11.40
2018-12-24T05:39:54.405Z,11.50
2018-12-24T05:42:38.863Z,11.50
2018-12-24T05:45:25.907Z,11.60
2018-12-24T05:48:11.822Z,11.50
2018-12-24T05:51:06.172Z,11.50
2018-12-24T05:53:59.871Z,11.60
2018-12-24T05:56:47.613Z,11.70
2018-12-24T05:59:36.838Z,11.50
2018-12-24T06:02:25.185Z,11.50
2018-12-24T06:05:14.880Z,11.40
2018-12-24T06:08:01.573Z,11.40
2018-12-24T06:10:49.305Z,11.50
2018-12-24T06:13:32.735Z,11.50
2018-12-24T06:16:21.889Z,11.60
2018-12-24T06:19:26.894Z,11.70
2018-12-24T06:22:22.896Z,11.60
2018-12-24T06:25:09.776Z,11.50
2018-12-24T06:27:55.679Z,11.50
2018-12-24T06:34:06.858Z,11.40
2018-12-24T06:36:51.444Z,11.40
2018-12-24T06:39:37.332Z,11.50
2018-12-24T06:42:31.205Z,11.50
2018-12-24T06:45:19.862Z,11.40
2018-12-24T06:48:04.574Z,11.40
2018-12-24T06:50:51.894Z,11.40
2018-12-24T06:53:49.963Z,11.50
2018-12-24T06:56:44.357Z,11.50
2018-12-24T06:59:29.882Z,11.40
2018-12-24T07:02:27.770Z,11.40
2018-12-24T07:05:15.808Z,11.50
2018-12-24T07:08:15.887Z,11.50
2018-12-24T07:11:03.936Z,11.70
2018-12-24T07:14:15.250Z,11.80
2018-12-24T07:16:58.383Z,11.80
2018-12-24T07:19:45.862Z,11.80
2018-12-24T07:22:37.284Z,11.80
2018-12-24T07:25:27.950Z,12.00
2018-12-24T07:28:17.349Z,12.00
2018-12-24T07:31:05.908Z,12.00
2018-12-24T07:33:53.739Z,11.90
2018-12-24T07:36:48.019Z,11.80
2018-12-24T07:39:37.815Z,11.80
2018-12-24T07:42:26.771Z,11.90
2018-12-24T07:45:14.966Z,11.80
2018-12-24T07:48:01.926Z,11.70
2018-12-24T07:50:49.659Z,11.70
2018-12-24T07:53:35.326Z,11.60
2018-12-24T07:56:19.289Z,11.50
2018-12-24T07:59:04.527Z,11.70
2018-12-24T08:01:47.934Z,11.70
2018-12-24T08:04:38.456Z,11.70
2018-12-24T08:07:24.941Z,11.80
2018-12-24T08:10:15.808Z,11.80
2018-12-24T08:13:04.771Z,11.70
2018-12-24T08:15:49.738Z,11.80
2018-12-24T08:18:45.951Z,11.80
2018-12-24T08:21:33.998Z,11.80
2018-12-24T08:24:21.493Z,11.80
2018-12-24T08:27:08.612Z,11.80
2018-12-24T08:29:54.855Z,11.80
2018-12-24T08:32:40.966Z,11.90
2018-12-24T08:35:31.858Z,11.80
2018-12-24T08:38:23.894Z,11.90
2018-12-24T08:41:09.478Z,11.90
2018-12-24T08:44:03.972Z,11.80
2018-12-24T08:46:52.035Z,11.80
2018-12-24T08:49:39.694Z,11.90
2018-12-24T08:52:26.862Z,11.80
2018-12-24T08:55:13.935Z,12.00
2018-12-24T08:58:02.258Z,11.90
2018-12-24T09:00:44.485Z,11.80
2018-12-24T09:03:30.734Z,11.90
2018-12-24T09:06:15.958Z,11.80
2018-12-24T09:08:59.700Z,11.80
2018-12-24T09:11:43.484Z,11.70
2018-12-24T09:14:26.610Z,11.60
2018-12-24T09:17:15.528Z,11.60
2018-12-24T09:19:58.705Z,11.60
2018-12-24T09:22:43.380Z,11.60
2018-12-24T09:25:32.940Z,11.70
2018-12-24T09:28:19.748Z,11.70
2018-12-24T09:31:10.556Z,11.70
2018-12-24T09:33:58.594Z,11.70
2018-12-24T09:36:42.902Z,11.70
2018-12-24T09:39:27.873Z,11.70
2018-12-24T09:42:14.679Z,11.70
2018-12-24T09:45:04.563Z,11.70
2018-12-24T09:47:50.502Z,11.70
2018-12-24T09:50:35.425Z,11.60
2018-12-24T09:53:21.295Z,11.60
2018-12-24T09:56:12.341Z,11.70
2018-12-24T09:58:54.941Z,11.80
2018-12-24T10:01:39.084Z,11.90
2018-12-24T10:04:40.093Z,11.90
2018-12-24T10:07:44.867Z,11.90
2018-12-24T10:10:28.960Z,11.90
2018-12-24T10:13:22.463Z,11.90
2018-12-24T10:16:08.373Z,11.80
2018-12-24T10:19:01.991Z,11.80
2018-12-24T10:21:49.101Z,11.80
2018-12-24T10:24:37.411Z,11.80
2018-12-24T10:27:22.109Z,11.80
2018-12-24T10:30:12.569Z,11.80
2018-12-24T10:32:56.974Z,11.80
2018-12-24T10:35:43.477Z,11.80
2018-12-24T10:38:28.071Z,11.80
2018-12-24T10:41:29.671Z,11.80
2018-12-24T10:44:22.034Z,11.80
2018-12-24T10:47:10.996Z,12.00
2018-12-24T10:50:01.767Z,12.00
2018-12-24T10:52:47.033Z,12.00
2018-12-24T10:55:31.999Z,12.10
2018-12-24T10:58:16.096Z,12.10
2018-12-24T11:01:02.554Z,11.90
2018-12-24T11:03:49.145Z,11.90
2018-12-24T11:06:39.860Z,11.90
2018-12-24T11:09:24.098Z,11.80
2018-12-24T11:12:13.148Z,11.90
2018-12-24T11:15:05.875Z,11.80
2018-12-24T11:17:56.156Z,11.80
2018-12-24T11:20:51.109Z,11.80
2018-12-24T11:23:40.231Z,11.70
2018-12-24T11:26:38.161Z,11.70
2018-12-24T11:29:30.962Z,11.80
2018-12-24T11:32:17.068Z,11.70
2018-12-24T11:35:06.228Z,11.70
2018-12-24T11:37:55.047Z,11.70
2018-12-24T11:40:50.414Z,11.60
2018-12-24T11:43:40.646Z,11.60
2018-12-24T11:46:38.196Z,11.70
2018-12-24T11:49:44.134Z,11.70
2018-12-24T11:52:31.551Z,11.70
2018-12-24T11:55:42.184Z,11.80
2018-12-24T11:58:38.031Z,11.80
2018-12-24T12:01:33.195Z,11.70
2018-12-24T12:04:26.706Z,11.70
2018-12-24T12:07:12.858Z,11.70
2018-12-24T12:10:02.749Z,11.80
2018-12-24T12:12:51.197Z,11.80
2018-12-24T12:15:42.785Z,11.80
2018-12-24T12:21:26.013Z,11.80
2018-12-24T12:24:40.163Z,11.80
2018-12-24T12:27:39.576Z,11.80
2018-12-24T12:30:37.169Z,11.70
2018-12-24T12:33:32.550Z,11.80
2018-12-24T12:36:22.689Z,11.70
2018-12-24T12:39:15.081Z,11.70
2018-12-24T12:42:20.225Z,11.80
2018-12-24T12:45:09.965Z,11.80
2018-12-24T12:48:00.056Z,11.70
2018-12-24T12:51:05.632Z,11.80
2018-12-24T12:53:58.234Z,11.70
2018-12-24T12:57:06.628Z,11.70
2018-12-24T13:00:02.593Z,11.70
2018-12-24T13:03:05.072Z,11.70
2018-12-24T13:05:48.241Z,11.70
2018-12-24T13:09:00.863Z,11.60
2018-12-24T13:11:56.885Z,11.50
2018-12-24T13:14:44.616Z,11.50
2018-12-24T13:17:39.680Z,11.40
2018-12-24T13:20:37.236Z,11.40
2018-12-24T13:23:41.565Z,11.50
2018-12-24T13:26:39.800Z,11.50
2018-12-24T13:29:31.264Z,11.40
2018-12-24T13:32:36.152Z,11.50
2018-12-24T13:35:28.136Z,11.50
2018-12-24T13:38:36.349Z,11.40
2018-12-24T13:41:33.274Z,11.40
2018-12-24T13:44:28.257Z,11.40
2018-12-24T13:47:24.288Z,11.40
2018-12-24T13:50:27.674Z,11.30
2018-12-24T13:53:30.153Z,11.30
2018-12-24T13:56:27.670Z,11.30
2018-12-24T13:59:49.460Z,11.30
2018-12-24T14:02:48.035Z,11.20
2018-12-24T14:05:43.299Z,11.30
2018-12-24T14:08:49.925Z,11.20
2018-12-24T14:11:56.300Z,11.20
2018-12-24T14:14:57.951Z,11.20
2018-12-24T14:17:56.138Z,11.20
2018-12-24T14:20:52.670Z,11.10
2018-12-24T14:24:04.328Z,11.10
2018-12-24T14:27:09.974Z,11.20
2018-12-24T14:29:59.244Z,11.10
2018-12-24T14:33:12.323Z,11.10
2018-12-24T14:36:08.105Z,11.20
2018-12-24T14:39:24.237Z,11.20
2018-12-24T14:42:35.019Z,11.10
2018-12-24T14:46:03.294Z,11.10
2018-12-24T14:48:55.644Z,11.10
2018-12-24T14:51:49.169Z,11.10
2018-12-24T14:55:09.336Z,11.20
2018-12-24T14:58:05.296Z,11.10
2018-12-24T15:01:20.166Z,11.20
2018-12-24T15:04:19.660Z,11.20
2018-12-24T15:07:17.268Z,11.20
2018-12-24T15:10:15.352Z,11.20
2018-12-24T15:13:45.888Z,11.20
2018-12-24T15:16:54.823Z,11.20
2018-12-24T15:19:53.318Z,11.20
2018-12-24T15:23:00.365Z,11.10
2018-12-24T15:26:05.365Z,11.10
2018-12-24T15:29:13.437Z,11.20
2018-12-24T15:32:10.145Z,11.10
2018-12-24T15:35:18.202Z,11.10
2018-12-24T15:38:33.057Z,11.10
2018-12-24T15:41:31.807Z,11.10
2018-12-24T15:44:56.100Z,11.10
2018-12-24T15:47:51.387Z,11.10
2018-12-24T15:50:46.265Z,11.10
2018-12-24T15:53:39.009Z,11.10
2018-12-24T15:56:45.779Z,11.10
2018-12-24T15:59:45.399Z,11.10
2018-12-24T16:02:44.350Z,11.00
2018-12-24T16:05:42.396Z,11.00
2018-12-24T16:08:50.409Z,11.00
2018-12-24T16:11:55.981Z,11.00
2018-12-24T16:14:47.361Z,11.00
2018-12-24T16:17:46.855Z,11.10
2018-12-24T16:20:49.337Z,11.00
2018-12-24T16:23:34.260Z,11.00
2018-12-24T16:26:25.984Z,11.00
2018-12-24T16:29:10.422Z,11.10
2018-12-24T16:31:58.731Z,11.00
2018-12-24T16:34:49.424Z,11.00
2018-12-24T16:37:43.423Z,11.00
2018-12-24T16:40:28.035Z,11.00
2018-12-24T16:43:22.386Z,11.00
2018-12-24T16:46:08.156Z,11.00
2018-12-24T16:48:53.455Z,10.90
2018-12-24T16:51:36.809Z,11.00
2018-12-24T16:54:22.401Z,10.90
2018-12-24T16:57:13.113Z,11.00
2018-12-24T17:00:11.120Z,11.00
2018-12-24T17:03:01.949Z,10.90
2018-12-24T17:05:49.965Z,10.90
2018-12-24T17:08:34.274Z,10.90
2018-12-24T17:11:18.329Z,10.90
2018-12-24T17:14:03.291Z,10.90
2018-12-24T17:16:49.228Z,11.00
2018-12-24T17:19:37.745Z,10.90
2018-12-24T17:22:22.190Z,10.90
2018-12-24T17:25:13.426Z,10.90
2018-12-24T17:28:03.803Z,10.90
2018-12-24T17:30:57.417Z,10.90
2018-12-24T17:33:40.475Z,10.80
2018-12-24T17:36:27.309Z,10.80
2018-12-24T17:39:15.482Z,10.80
2018-12-24T17:42:01.479Z,10.90
2018-12-24T17:44:56.275Z,10.90
2018-12-24T17:47:40.134Z,10.90
2018-12-24T17:50:27.222Z,10.90
2018-12-24T17:53:16.217Z,10.90
2018-12-24T17:56:09.429Z,10.80
2018-12-24T17:59:06.121Z,10.80
2018-12-24T18:01:52.269Z,10.80
2018-12-24T18:04:39.433Z,10.90
2018-12-24T18:07:23.482Z,10.80
2018-12-24T18:10:09.940Z,10.80
2018-12-24T18:12:59.252Z,10.80
2018-12-24T18:15:42.949Z,10.80
2018-12-24T18:18:28.885Z,10.80
2018-12-24T18:21:14.562Z,10.80
2018-12-24T18:23:59.535Z,10.90
2018-12-24T18:26:40.982Z,10.90
2018-12-24T18:29:23.844Z,10.80
2018-12-24T18:32:09.605Z,10.80
2018-12-24T18:34:53.528Z,10.80
2018-12-24T18:37:45.530Z,10.80
2018-12-24T18:40:32.888Z,10.80
2018-12-24T18:43:17.288Z,10.80
2018-12-24T18:46:00.491Z,10.80
2018-12-24T18:48:45.383Z,10.80
2018-12-24T18:51:26.011Z,10.80
2018-12-24T18:54:19.545Z,10.80
2018-12-24T18:57:05.202Z,10.80
2018-12-24T18:59:49.864Z,10.80
2018-12-24T19:02:35.922Z,10.80
2018-12-24T19:05:21.348Z,10.80
2018-12-24T19:08:06.923Z,10.80
2018-12-24T19:10:50.352Z,10.80
2018-12-24T19:13:34.516Z,10.80
2018-12-24T19:16:19.563Z,10.80
2018-12-24T19:19:10.173Z,10.80
2018-12-24T19:21:52.378Z,10.80
2018-12-24T19:24:37.299Z,10.80
2018-12-24T19:27:22.889Z,10.80
2018-12-24T19:30:08.578Z,10.80
2018-12-24T19:32:56.649Z,10.80
2018-12-24T19:35:40.911Z,10.80
2018-12-24T19:38:28.949Z,10.80
2018-12-24T19:41:12.993Z,10.80
2018-12-24T19:43:56.381Z,10.80
2018-12-24T19:46:41.042Z,10.80
2018-12-24T19:49:23.545Z,10.80
2018-12-24T19:52:08.259Z,10.80
2018-12-24T19:54:52.550Z,10.80
2018-12-24T19:57:39.600Z,10.80
2018-12-24T20:00:26.240Z,10.80
2018-12-24T20:03:13.981Z,10.80
2018-12-24T20:05:59.513Z,10.80
2018-12-24T20:08:43.291Z,10.80
2018-12-24T20:11:31.335Z,10.70
2018-12-24T20:14:14.104Z,10.80
2018-12-24T20:16:57.235Z,10.80
2018-12-24T20:19:41.939Z,10.80
2018-12-24T20:22:26.245Z,10.80
2018-12-24T20:25:13.628Z,10.80
2018-12-24T20:27:58.617Z,10.80
2018-12-24T20:30:46.991Z,10.80
2018-12-24T20:33:30.435Z,10.80
2018-12-24T20:36:21.633Z,10.80
2018-12-24T20:39:08.612Z,10.80
2018-12-24T20:41:54.284Z,10.80
2018-12-24T20:44:38.592Z,10.80
2018-12-24T20:47:26.947Z,10.70
2018-12-24T20:50:12.538Z,10.70
2018-12-24T20:53:00.567Z,10.70
2018-12-24T20:55:43.666Z,10.70
2018-12-24T20:58:33.312Z,10.70
2018-12-24T21:01:25.041Z,10.80
2018-12-24T21:04:06.581Z,10.70
2018-12-24T21:06:51.003Z,10.70
2018-12-24T21:09:35.339Z,10.70
2018-12-24T21:12:19.623Z,10.70
2018-12-24T21:15:05.536Z,10.70
2018-12-24T21:17:54.494Z,10.70
2018-12-24T21:20:37.930Z,10.70
2018-12-24T21:23:21.061Z,10.70
2018-12-24T21:26:04.493Z,10.70
2018-12-24T21:28:49.460Z,10.70
2018-12-24T21:31:33.506Z,10.70
2018-12-24T21:34:17.551Z,10.70
2018-12-24T21:37:01.336Z,10.60
2018-12-24T21:39:45.111Z,10.60
2018-12-24T21:42:30.044Z,10.60
2018-12-24T21:45:18.962Z,10.60
2018-12-24T21:48:05.694Z,10.60
2018-12-24T21:50:50.172Z,10.70
2018-12-24T21:53:37.603Z,10.70
2018-12-24T21:56:20.984Z,10.70
2018-12-24T21:59:05.077Z,10.70
2018-12-24T22:01:48.157Z,10.70
2018-12-24T22:04:31.331Z,10.70
2018-12-24T22:07:14.691Z,10.70
2018-12-24T22:10:01.268Z,10.70
2018-12-24T22:12:46.232Z,10.70
2018-12-24T22:15:30.545Z,10.70
2018-12-24T22:18:17.359Z,10.70
2018-12-24T22:21:01.679Z,10.70
2018-12-24T22:23:46.677Z,10.70
2018-12-24T22:26:30.701Z,10.60
2018-12-24T22:29:16.352Z,10.60
2018-12-24T22:32:06.498Z,10.70
2018-12-24T22:34:52.126Z,10.80
2018-12-24T22:37:35.203Z,10.70
2018-12-24T22:40:22.019Z,10.70
2018-12-24T22:43:13.131Z,10.70
2018-12-24T22:45:57.174Z,10.80
2018-12-24T22:48:40.768Z,10.70
2018-12-24T22:51:24.089Z,10.80
2018-12-24T22:54:13.618Z,10.70
2018-12-24T22:56:57.666Z,10.70
2018-12-24T22:59:45.358Z,10.70
2018-12-24T23:02:38.095Z,10.70
2018-12-24T23:05:22.402Z,10.70
2018-12-24T23:08:06.168Z,10.60
2018-12-24T23:10:51.720Z,10.70
2018-12-24T23:13:37.354Z,10.70
2018-12-24T23:16:22.276Z,10.70
2018-12-24T23:19:06.630Z,10.70
2018-12-24T23:21:48.220Z,10.70
2018-12-24T23:24:32.573Z,10.70
2018-12-24T23:27:27.690Z,10.70
2018-12-24T23:30:19.763Z,10.70
2018-12-24T23:33:04.067Z,10.70
2018-12-24T23:35:50.574Z,10.70
2018-12-24T23:38:43.789Z,10.70
2018-12-24T23:41:29.795Z,10.70
2018-12-24T23:44:12.587Z,10.60
2018-12-24T23:46:57.563Z,10.70
2018-12-24T23:49:43.101Z,10.80
2018-12-24T23:52:28.802Z,10.80
2018-12-24T23:55:18.257Z,10.80
2018-12-24T23:58:05.689Z,10.70
